Flight Track Log - Related Links

Times and Time Zones

All times are in EDT time to prevent confusion due to time zone crossing. See the DAL1751 flight status page for this flight to view local times or setup timezone preferences in your user account.

Time Position Orientation Groundspeed Altitude Reporting Facility
EDT Latitude Longitude Course Direction KTS MPH feet Rate Location/Type
Thu 07:55:00 PM 40.5770 -80.6649 284° West  Level FlightAware Approximate
Thu 07:55:24 PM 40.5731 -80.1567 285° West 288 331 8,000  Level Cleveland Center
Thu 07:56:00 PM 40.6087 -80.8143 286° West  Level FlightAware Approximate
Thu 07:56:24 PM 40.5878 -80.2606 281° West 309 356 10,800  Level Cleveland Center
Thu 07:57:00 PM 40.6357 -80.9642 282° West  Level FlightAware Approximate
Thu 07:57:24 PM 40.6047 -80.3889 280° West 325 374 12,800  Level Cleveland Center
Thu 07:58:00 PM 40.6661 -81.1141 288° West  Level FlightAware Approximate
Thu 07:58:24 PM 40.6236 -80.5256 280° West 363 418 15,600  Level Cleveland Center
Thu 07:59:00 PM 40.7024 -81.2619 285° West  Level FlightAware Approximate
Thu 07:59:24 PM 40.6425 -80.6706 280° West 397 457 17,900  Level Cleveland Center
Thu 08:00:00 PM 40.7324 -81.4122 285° West  Level FlightAware Approximate
Thu 08:00:24 PM 40.6653 -80.8131 282° West 404 465 20,300  Level Cleveland Center
Thu 08:01:24 PM 40.6856 -80.9636 280° West 410 472 22,400 1,850 Climbing Cleveland Center
Thu 08:02:24 PM 40.6997 -81.1089 277° West 426 490 24,000 1,750 Climbing Cleveland Center
Thu 08:03:24 PM 40.7217 -81.2733 280° West 448 516 25,900 1,700 Climbing Cleveland Center
Thu 08:04:24 PM 40.7436 -81.4325 280° West 448 516 27,400 1,350 Climbing Cleveland Center
Thu 08:05:24 PM 40.7922 -81.5922 292° West 461 531 28,600 1,600 Climbing Cleveland Center
Thu 08:06:24 PM 40.8408 -81.7494 292° West 472 543 30,600 1,800 Climbing Cleveland Center
Thu 08:07:24 PM 40.8953 -81.9208 293° West 472 543 32,200 1,450 Climbing Cleveland Center
Thu 08:08:24 PM 40.9433 -82.0786 292° West 472 543 33,500 1,450 Climbing Cleveland Center
Thu 08:09:24 PM 40.9933 -82.2283 294° West 459 528 35,100 1,250 Climbing Cleveland Center
Thu 08:10:24 PM 41.0494 -82.3756 297° West 452 520 36,000 450 Climbing Cleveland Center
Thu 08:11:24 PM 41.1075 -82.5258 297° West 447 514 36,000  Level Cleveland Center
Thu 08:12:24 PM 41.1633 -82.6767 296° West 453 521 36,000  Level Cleveland Center
Thu 08:13:24 PM 41.2128 -82.8078 297° West 458 527 36,000  Level Cleveland Center
Thu 08:14:24 PM 41.2703 -82.9536 298° West 451 519 36,000  Level Cleveland Center
Thu 08:15:24 PM 41.3275 -83.1050 297° West 451 519 36,000  Level Cleveland Center
Thu 08:16:24 PM 41.3825 -83.2539 296° West 451 519 36,000  Level Cleveland Center
Thu 08:17:24 PM 41.4375 -83.4000 297° West 451 519 36,000  Level Cleveland Center
Thu 08:18:24 PM 41.4942 -83.5522 296° West 457 526 36,000  Level Cleveland Center
Thu 08:19:24 PM 41.5506 -83.7019 297° West 457 526 36,000  Level Cleveland Center
Thu 08:20:24 PM 41.6067 -83.8547 296° West 457 526 36,000  Level Cleveland Center
Thu 08:22:01 PM 41.6939 -84.0839 297° West 455 524 36,000  Level Chicago Center
Thu 08:23:03 PM 41.7597 -84.2650 296° West 455 524 36,000  Level Chicago Center
Thu 08:24:05 PM 41.8156 -84.4161 296° West 454 522 36,000  Level Chicago Center
Thu 08:25:07 PM 41.8697 -84.5686 296° West 455 524 36,000  Level Chicago Center
Thu 08:26:10 PM 41.9242 -84.7217 296° West 457 526 36,000  Level Chicago Center
Thu 08:27:11 PM 41.9789 -84.8744 296° West 458 527 36,000  Level Chicago Center
Thu 08:28:13 PM 42.0356 -85.0358 295° West 457 526 36,000  Level Chicago Center
Thu 08:29:15 PM 42.0892 -85.1897 295° West 455 524 36,000  Level Chicago Center
Thu 08:30:17 PM 42.1544 -85.3725 296° West 453 521 36,000  Level Chicago Center
Thu 08:31:19 PM 42.2075 -85.5253 295° West 449 517 36,000  Level Chicago Center
Thu 08:32:21 PM 42.2592 -85.6778 295° West 447 514 36,000  Level Chicago Center
Thu 08:33:23 PM 42.3114 -85.8281 295° West 442 509 36,000  Level Chicago Center
Thu 08:34:25 PM 42.3631 -85.9831 294° West 449 517 36,000  Level Chicago Center
Thu 08:35:28 PM 42.4144 -86.1358 295° West 443 510 36,000 -48 Level Chicago Center
Thu 08:36:30 PM 42.4789 -86.3225 295° West 444 511 35,900 -532 Descending Chicago Center
Thu 08:37:32 PM 42.5283 -86.4747 294° West 447 514 34,900 -919 Descending Chicago Center
Thu 08:38:34 PM 42.5811 -86.6281 295° West 447 514 34,000 -435 Descending Chicago Center
Thu 08:39:36 PM 42.6319 -86.7825 294° West 446 513 34,000  Level Chicago Center
Thu 08:40:38 PM 42.6811 -86.9378 293° West 443 510 34,000  Level Chicago Center
Thu 08:41:40 PM 42.7336 -87.0933 295° West 449 517 34,000  Level Chicago Center
Thu 08:42:42 PM 42.7850 -87.2494 294° West 450 518 34,000  Level Chicago Center
Thu 08:43:44 PM 42.8450 -87.4317 294° West 448 516 34,000  Level Chicago Center
Thu 08:44:46 PM 42.8986 -87.5908 295° West 457 526 34,000 48 Level Chicago Center
Thu 08:45:48 PM 42.9739 -87.7325 306° West 458 527 34,100  Climbing Chicago Center
Thu 08:46:51 PM 43.0478 -87.8744 305° West 456 525 34,000 -48 Descending Chicago Center
Thu 08:47:53 PM 43.1311 -88.0433 304° West 453 521 34,000  Level Chicago Center
Thu 08:48:55 PM 43.2028 -88.1836 305° West 447 514 34,000  Level Chicago Center
Thu 08:49:57 PM 43.2744 -88.3247 305° West 448 516 34,000 -48 Level Chicago Center
Thu 08:50:59 PM 43.3433 -88.4642 304° West 448 516 33,900  Descending Chicago Center
Thu 08:52:01 PM 43.4167 -88.6064 305° West 453 521 34,000 48 Climbing Chicago Center
Thu 08:53:03 PM 43.4928 -88.7617 304° West 454 522 34,000  Level Chicago Center
Thu 08:54:05 PM 43.5636 -88.9039 305° West 449 517 34,000  Level Chicago Center
Thu 08:55:07 PM 43.6342 -89.0464 304° West 449 517 34,000  Level Chicago Center
Thu 08:55:27 PM 43.6581 -89.0942 305° West 450 518 34,000  Level Minneapolis Center
Thu 08:56:29 PM 43.7406 -89.2622 304° West 452 520 34,000  Level Minneapolis Center
Thu 08:57:43 PM 43.8211 -89.4322 303° West 454 522 34,000  Level Minneapolis Center
Thu 08:58:45 PM 43.8917 -89.5783 304° West 454 522 34,000  Level Minneapolis Center
Thu 08:59:47 PM 43.9622 -89.7244 304° West 457 526 34,000  Level Minneapolis Center
Thu 09:00:49 PM 44.0456 -89.8969 304° West 458 527 34,000  Level Minneapolis Center
Thu 09:01:51 PM 44.1111 -90.0500 301° West 461 531 34,000  Level Minneapolis Center
Thu 09:02:53 PM 44.1661 -90.2069 296° West 452 520 34,000  Level Minneapolis Center
Thu 09:03:55 PM 44.2219 -90.3664 296° West 457 526 34,000  Level Minneapolis Center
Thu 09:04:57 PM 44.2783 -90.5244 297° West 456 525 34,000  Level Minneapolis Center
Thu 09:06:00 PM 44.3436 -90.7089 296° West 455 524 34,000  Level Minneapolis Center
Thu 09:07:02 PM 44.3989 -90.8669 296° West 454 522 34,000 -97 Level Minneapolis Center
Thu 09:08:04 PM 44.4469 -91.0111 295° West 453 521 33,800 -1,597 Descending Minneapolis Center
Thu 09:09:06 PM 44.5028 -91.1728 296° West 460 529 30,700 -3,097 Descending Minneapolis Center
Thu 09:10:08 PM 44.5686 -91.3672 295° West 462 532 27,400 -2,927 Descending Minneapolis Center
Thu 09:11:09 PM 44.6239 -91.5308 295° West 464 534 24,700 -2,683 Descending Minneapolis Center
Thu 09:12:11 PM 44.6728 -91.6786 295° West 430 495 21,900 -2,661 Descending Minneapolis Center
Thu 09:13:13 PM 44.7192 -91.8175 295° West 402 463 19,200 -2,419 Descending Minneapolis Center
Thu 09:14:15 PM 44.7631 -91.9533 295° West 385 443 16,900 -2,468 Descending Minneapolis Center
Thu 09:15:17 PM 44.8147 -92.1092 295° West 366 421 14,100 -2,468 Descending Minneapolis Center
Thu 09:16:19 PM 44.8547 -92.2339 294° West 353 406 11,800 -2,032 Descending Minneapolis Center
Thu 09:17:21 PM 44.8669 -92.3558 278° West 336 387 9,900 -871 Descending Minneapolis Center
Thu 09:18:23 PM 44.8181 -92.4611 237° Southwest 319 367 10,000 -732 Climbing Minneapolis Center
Thu 09:19:24 PM 44.7931 -92.5650 251° West 285 328 8,400 -1,659 Descending Minneapolis Center
Thu 09:20:26 PM 44.7731 -92.6706 255° West 281 323 6,600 -1,597 Descending Minneapolis Center
Thu 09:21:28 PM 44.7492 -92.7939 255° West 273 314 5,100 -1,210 Descending Minneapolis Center
Thu 09:22:30 PM 44.7436 -92.8889 265° West 247 284 4,100 -532 Descending Minneapolis Center
Thu 09:23:32 PM 44.7703 -92.9647 296° West 220 253 4,000 -98 Descending Minneapolis Center
Thu 09:24:33 PM 44.7981 -93.0286 302° West 191 220 3,900 -98 Descending Minneapolis Center

Login

Don't have an account? Register now (free) for customized features, flight alerts, and more!